createdAt,value
2018-04-07T00:05:12.000Z,18
2018-04-07T00:15:12.000Z,17.9
2018-04-07T00:25:13.000Z,17.8
2018-04-07T00:35:12.000Z,17.7
2018-04-07T00:45:12.000Z,17.7
2018-04-07T00:55:12.000Z,17.7
2018-04-07T01:05:12.000Z,17.6
2018-04-07T01:15:12.000Z,17.5
2018-04-07T01:25:12.000Z,17.4
2018-04-07T01:35:12.000Z,17.3
2018-04-07T01:45:12.000Z,17.2
2018-04-07T01:55:12.000Z,17.2
2018-04-07T02:05:12.000Z,17.2
2018-04-07T02:15:12.000Z,17.3
2018-04-07T02:25:12.000Z,17
2018-04-07T02:35:12.000Z,17
2018-04-07T02:45:12.000Z,16.9
2018-04-07T02:55:12.000Z,17
2018-04-07T03:05:12.000Z,17
2018-04-07T03:15:12.000Z,16.9
2018-04-07T03:25:12.000Z,16.9
2018-04-07T03:35:12.000Z,16.8
2018-04-07T03:45:12.000Z,16.8
2018-04-07T03:55:12.000Z,16.7
2018-04-07T04:05:12.000Z,16.7
2018-04-07T04:15:12.000Z,16.7
2018-04-07T04:25:12.000Z,16.5
2018-04-07T04:35:12.000Z,16.6
2018-04-07T04:45:12.000Z,16.5
2018-04-07T04:55:12.000Z,16.4
2018-04-07T05:05:12.000Z,16.5
2018-04-07T05:15:12.000Z,17.1
2018-04-07T05:25:12.000Z,18.1
2018-04-07T05:35:13.000Z,18.4
2018-04-07T05:45:12.000Z,18.8
2018-04-07T05:55:12.000Z,19
2018-04-07T06:05:12.000Z,19.1
2018-04-07T06:15:12.000Z,19.3
2018-04-07T06:25:12.000Z,19.5
2018-04-07T06:35:12.000Z,19.7
2018-04-07T06:45:13.000Z,19.6
2018-04-07T06:55:13.000Z,19.7
2018-04-07T07:05:13.000Z,19.9
2018-04-07T07:15:13.000Z,19.8
2018-04-07T07:25:13.000Z,19.9
2018-04-07T07:35:13.000Z,19.7
2018-04-07T07:45:13.000Z,20
2018-04-07T07:55:13.000Z,20.2
2018-04-07T08:05:13.000Z,20.1
2018-04-07T08:15:15.000Z,20.1
2018-04-07T08:25:13.000Z,20.2
2018-04-07T08:35:13.000Z,20.3
2018-04-07T08:45:13.000Z,20.3
2018-04-07T08:55:13.000Z,20.3
2018-04-07T09:05:13.000Z,20.3
2018-04-07T09:15:13.000Z,20.3
2018-04-07T09:25:13.000Z,20.4
2018-04-07T09:35:13.000Z,20.5
2018-04-07T09:45:13.000Z,20.4
2018-04-07T09:55:13.000Z,20.3
2018-04-07T10:05:13.000Z,20.4
2018-04-07T10:15:13.000Z,20.5
2018-04-07T10:25:13.000Z,20.5
2018-04-07T10:35:13.000Z,20.6
2018-04-07T10:45:13.000Z,20.3
2018-04-07T10:55:13.000Z,20.4
2018-04-07T11:05:13.000Z,20.5
2018-04-07T11:15:13.000Z,20.5
2018-04-07T11:25:13.000Z,20.4
2018-04-07T11:35:13.000Z,20.6
2018-04-07T11:45:13.000Z,20.5
2018-04-07T11:55:13.000Z,20.6
2018-04-07T12:05:13.000Z,20.6
2018-04-07T12:15:13.000Z,20.7
2018-04-07T12:25:13.000Z,20.7
2018-04-07T12:35:13.000Z,20.6
2018-04-07T12:45:13.000Z,20.6
2018-04-07T12:55:13.000Z,20.7
2018-04-07T13:05:13.000Z,20.8
2018-04-07T13:15:13.000Z,20.8
2018-04-07T13:25:14.000Z,20.8
2018-04-07T13:35:13.000Z,20.8
2018-04-07T13:45:14.000Z,20.7
2018-04-07T13:55:14.000Z,20.9
2018-04-07T14:05:14.000Z,20.9
2018-04-07T14:15:14.000Z,20.9
2018-04-07T14:25:14.000Z,20.9
2018-04-07T14:35:14.000Z,21
2018-04-07T14:45:14.000Z,21
2018-04-07T14:55:14.000Z,21
2018-04-07T15:05:14.000Z,21
2018-04-07T15:15:14.000Z,21
2018-04-07T15:25:14.000Z,21.2
2018-04-07T15:35:14.000Z,21
2018-04-07T15:45:14.000Z,21
2018-04-07T15:55:14.000Z,21
2018-04-07T16:05:14.000Z,21
2018-04-07T16:15:14.000Z,21.2
2018-04-07T16:25:14.000Z,20.9
2018-04-07T16:35:14.000Z,21
2018-04-07T16:45:14.000Z,21.1
2018-04-07T16:55:14.000Z,20.9
2018-04-07T17:05:14.000Z,21.1
2018-04-07T17:15:14.000Z,21.1
2018-04-07T17:25:14.000Z,21.3
2018-04-07T17:35:14.000Z,21.1
2018-04-07T17:45:14.000Z,21.1
2018-04-07T17:55:14.000Z,21.1
2018-04-07T18:05:14.000Z,21.1
2018-04-07T18:15:14.000Z,21.1
2018-04-07T18:25:14.000Z,21.2
2018-04-07T18:35:14.000Z,21.1
2018-04-07T18:45:14.000Z,21.1
2018-04-07T18:55:14.000Z,21.2
2018-04-07T19:05:14.000Z,21.1
2018-04-07T19:15:14.000Z,21.3
2018-04-07T19:25:14.000Z,21.1
2018-04-07T19:35:14.000Z,21.1
2018-04-07T19:45:14.000Z,21.2
2018-04-07T19:55:14.000Z,21.2
2018-04-07T20:05:14.000Z,21
2018-04-07T20:15:14.000Z,21.3
2018-04-07T20:25:14.000Z,21.1
2018-04-07T20:35:15.000Z,21.1
2018-04-07T20:45:16.000Z,21.2
2018-04-07T20:55:15.000Z,21.2
2018-04-07T21:05:15.000Z,21.1
2018-04-07T21:15:15.000Z,21.1
2018-04-07T21:25:15.000Z,21.1
2018-04-07T21:45:15.000Z,21.1
2018-04-07T21:55:15.000Z,21.3
2018-04-07T22:05:15.000Z,21.2
2018-04-07T22:15:15.000Z,21.2
2018-04-07T22:25:15.000Z,21.2
2018-04-07T22:35:15.000Z,21.2
2018-04-07T22:45:15.000Z,21.2
2018-04-07T22:55:15.000Z,21
2018-04-07T23:05:15.000Z,20.8
2018-04-07T23:15:15.000Z,20.7
2018-04-07T23:25:15.000Z,20.5
2018-04-07T23:35:15.000Z,20.5
2018-04-07T23:45:15.000Z,20.2
2018-04-07T23:55:15.000Z,20.3
